Time;durP1;ratioP1;P1;durP2;ratioP2;P2;SDS_P1;SDS_P2;PMS_P1;PMS_P2;Temp;Humidity;BMP_temperature;BMP_pressure;BME280_temperature;BME280_humidity;BME280_pressure;Samples;Min_cycle;Max_cycle;Signal;HPM_P1;HPM_P2
2022/10/28 00:01:15;;;;;;;2.03;1.92;;;13.20;99.90;;;;;;4986199;28;20248;-75
2022/10/28 00:03:45;;;;;;;2.10;1.98;;;13.20;99.90;;;;;;4987258;28;20753;-75
2022/10/28 00:06:16;;;;;;;3.10;1.90;;;13.20;99.90;;;;;;4991100;28;20204;-75
2022/10/28 00:08:44;;;;;;;2.03;1.83;;;13.10;99.90;;;;;;4993661;28;20224;-75
2022/10/28 00:11:13;;;;;;;2.35;2.08;;;13.00;99.90;;;;;;4996220;28;20214;-75
2022/10/28 00:13:42;;;;;;;2.60;2.20;;;13.00;99.90;;;;;;5002686;28;20710;-75
2022/10/28 00:16:12;;;;;;;2.25;1.73;;;13.00;99.90;;;;;;4988915;28;20658;-75
2022/10/28 00:18:41;;;;;;;2.15;1.95;;;13.00;99.90;;;;;;4991202;28;20232;-75
2022/10/28 00:21:11;;;;;;;2.08;1.90;;;12.90;99.90;;;;;;4975312;28;20208;-74
2022/10/28 00:23:40;;;;;;;1.65;1.55;;;12.90;99.90;;;;;;4988173;28;20236;-74
2022/10/28 00:26:09;;;;;;;2.00;1.90;;;12.90;99.90;;;;;;4977451;28;20213;-74
2022/10/28 00:28:41;;;;;;;2.25;2.10;;;12.90;99.90;;;;;;4986873;28;20223;-74
2022/10/28 00:31:10;;;;;;;1.80;1.70;;;12.90;99.90;;;;;;4988007;28;20200;-74
2022/10/28 00:33:38;;;;;;;2.97;2.40;;;12.90;99.90;;;;;;4986270;28;20224;-75
2022/10/28 00:36:15;;;;;;;2.35;2.10;;;12.90;99.90;;;;;;4975999;28;20589;-74
2022/10/28 00:38:45;;;;;;;2.17;1.98;;;12.90;99.90;;;;;;4970361;28;20603;-74
2022/10/28 00:41:15;;;;;;;2.03;1.90;;;12.90;99.90;;;;;;4990760;28;20201;-75
2022/10/28 00:43:45;;;;;;;2.30;2.20;;;12.90;99.90;;;;;;4974973;28;20221;-74
2022/10/28 00:46:29;;;;;;;3.05;2.35;;;12.90;99.90;;;;;;4990601;28;20208;-75
2022/10/28 00:49:01;;;;;;;2.42;2.22;;;12.90;99.90;;;;;;4988653;28;20221;-75
2022/10/28 00:51:31;;;;;;;4.43;2.53;;;12.90;99.90;;;;;;4991001;28;20197;-75
2022/10/28 00:54:00;;;;;;;2.25;2.00;;;12.80;99.90;;;;;;4989626;28;20221;-74
2022/10/28 00:56:32;;;;;;;2.17;1.98;;;12.80;99.90;;;;;;4993632;28;20201;-75
2022/10/28 00:59:04;;;;;;;2.63;2.42;;;12.80;99.90;;;;;;4993108;28;20229;-75
2022/10/28 01:01:31;;;;;;;3.05;2.00;;;12.70;99.90;;;;;;4992695;28;21768;-75
2022/10/28 01:04:00;;;;;;;2.55;1.83;;;12.70;99.90;;;;;;4993555;28;20224;-74
2022/10/28 01:06:29;;;;;;;2.35;2.15;;;12.60;99.90;;;;;;4976867;28;20681;-75
2022/10/28 01:08:56;;;;;;;2.38;1.80;;;12.60;99.90;;;;;;4992098;28;20247;-73
2022/10/28 01:12:01;;;;;;;2.53;2.20;;;12.60;99.90;;;;;;4978354;28;20205;-73
2022/10/28 01:14:44;;;;;;;2.05;1.95;;;12.60;99.90;;;;;;4990826;28;20232;-73
2022/10/28 01:17:35;;;;;;;2.55;1.95;;;12.60;99.90;;;;;;4996098;28;20224;-73
2022/10/28 01:20:28;;;;;;;1.95;1.85;;;12.60;99.90;;;;;;4978282;28;20192;-74
2022/10/28 01:23:00;;;;;;;2.10;1.95;;;12.60;99.90;;;;;;4992295;28;20267;-73
2022/10/28 01:25:44;;;;;;;2.25;2.05;;;12.50;99.90;;;;;;4977437;28;20627;-74
2022/10/28 01:28:49;;;;;;;3.03;1.95;;;12.50;99.90;;;;;;4992510;28;20224;-74
2022/10/28 01:31:35;;;;;;;1.80;1.70;;;12.50;99.90;;;;;;4967550;28;20200;-74
2022/10/28 01:34:11;;;;;;;2.17;1.98;;;12.50;99.90;;;;;;4990390;28;20236;-74
2022/10/28 01:36:43;;;;;;;2.70;2.15;;;12.50;99.90;;;;;;4990319;28;20290;-73
2022/10/28 01:39:20;;;;;;;2.20;2.05;;;12.50;99.90;;;;;;4990098;28;20225;-74
2022/10/28 01:41:53;;;;;;;1.95;1.85;;;12.40;99.90;;;;;;4962258;28;20689;-74
2022/10/28 01:44:27;;;;;;;2.22;2.03;;;12.40;99.90;;;;;;4978049;28;20201;-73
2022/10/28 01:47:02;;;;;;;2.50;2.30;;;12.30;99.90;;;;;;4991435;28;20295;-73
2022/10/28 01:49:38;;;;;;;2.08;1.90;;;12.30;99.90;;;;;;4992722;28;20255;-73
2022/10/28 01:52:09;;;;;;;2.70;2.00;;;12.30;99.90;;;;;;4991559;28;20224;-73
2022/10/28 01:54:40;;;;;;;2.40;2.20;;;12.30;99.90;;;;;;4972835;28;20225;-73
2022/10/28 01:57:07;;;;;;;3.05;2.45;;;12.30;99.90;;;;;;4972930;28;20240;-73
2022/10/28 01:59:36;;;;;;;1.95;1.85;;;12.30;99.90;;;;;;4979811;28;20224;-73
2022/10/28 02:02:05;;;;;;;3.17;2.20;;;12.20;99.90;;;;;;4991084;28;20761;-73
2022/10/28 02:04:32;;;;;;;3.40;2.25;;;12.20;99.90;;;;;;4986395;28;20204;-73
2022/10/28 02:07:00;;;;;;;2.45;2.25;;;12.20;99.90;;;;;;4991933;28;20260;-74
2022/10/28 02:09:44;;;;;;;2.45;2.25;;;12.20;99.90;;;;;;4994730;28;20585;-73
2022/10/28 02:12:22;;;;;;;2.58;1.65;;;12.20;99.90;;;;;;4991996;28;20595;-73
2022/10/28 02:15:20;;;;;;;2.92;2.30;;;12.30;99.90;;;;;;4992931;28;20205;-73
2022/10/28 02:18:13;;;;;;;2.08;1.98;;;12.30;99.90;;;;;;4985163;28;20601;-73
2022/10/28 02:20:49;;;;;;;1.80;1.70;;;12.30;99.90;;;;;;4992641;28;20200;-73
2022/10/28 02:23:26;;;;;;;2.03;1.92;;;12.30;99.90;;;;;;4972874;28;20228;-73
2022/10/28 02:25:59;;;;;;;1.85;1.75;;;12.30;99.90;;;;;;4995090;28;20201;-73
2022/10/28 02:28:36;;;;;;;2.05;1.95;;;12.30;99.90;;;;;;4976030;28;20213;-74
2022/10/28 02:31:09;;;;;;;3.00;2.10;;;12.30;99.90;;;;;;4991162;28;20197;-74
2022/10/28 02:33:40;;;;;;;2.50;2.20;;;12.30;99.90;;;;;;4986764;28;20228;-74
2022/10/28 02:36:12;;;;;;;2.33;2.13;;;12.20;99.90;;;;;;4992027;28;20601;-74
2022/10/28 02:38:43;;;;;;;2.13;1.95;;;12.30;99.90;;;;;;4957342;28;20287;-73
2022/10/28 02:41:16;;;;;;;2.38;2.20;;;12.30;99.90;;;;;;4989565;28;20236;-73
2022/10/28 02:43:45;;;;;;;3.28;2.10;;;12.30;99.90;;;;;;4989113;28;20232;-73
2022/10/28 02:46:15;;;;;;;2.83;2.63;;;12.30;99.90;;;;;;4993464;28;20197;-73
2022/10/28 02:48:47;;;;;;;1.90;1.80;;;12.30;99.90;;;;;;4991829;28;20213;-74
2022/10/28 02:51:18;;;;;;;2.35;2.10;;;12.30;99.90;;;;;;4972480;28;20658;-74
2022/10/28 02:53:55;;;;;;;2.63;2.10;;;12.20;99.90;;;;;;4988855;28;20228;-74
2022/10/28 02:56:22;;;;;;;2.40;2.20;;;12.20;99.90;;;;;;4989731;28;20212;-73
2022/10/28 02:58:50;;;;;;;2.40;2.17;;;12.20;99.90;;;;;;4991473;28;20821;-73
2022/10/28 03:01:17;;;;;;;2.42;2.22;;;12.20;99.90;;;;;;4961395;28;20702;-74
2022/10/28 03:03:46;;;;;;;2.15;2.03;;;12.20;99.90;;;;;;4991258;28;20237;-73
2022/10/28 03:06:14;;;;;;;2.38;2.17;;;12.20;99.90;;;;;;5009314;28;20613;-73
2022/10/28 03:08:41;;;;;;;2.30;2.13;;;12.20;99.90;;;;;;4990887;28;20764;-73
2022/10/28 03:11:09;;;;;;;2.22;2.03;;;12.10;99.90;;;;;;4992022;28;20636;-73
2022/10/28 03:13:36;;;;;;;2.17;1.88;;;12.20;99.90;;;;;;4972617;28;20229;-73
2022/10/28 03:16:03;;;;;;;2.05;1.90;;;12.20;99.90;;;;;;4976365;28;20205;-73
2022/10/28 03:18:31;;;;;;;2.10;2.00;;;12.20;99.90;;;;;;4976361;28;20225;-73
2022/10/28 03:21:00;;;;;;;2.03;1.92;;;12.20;99.90;;;;;;4993715;28;20203;-73
2022/10/28 03:23:27;;;;;;;2.30;2.10;;;12.20;99.90;;;;;;4986330;28;20224;-73
2022/10/28 03:25:55;;;;;;;2.30;2.05;;;12.20;99.90;;;;;;4993541;28;20611;-73
2022/10/28 03:28:22;;;;;;;2.25;2.05;;;12.20;99.90;;;;;;4990783;28;20212;-73
2022/10/28 03:30:50;;;;;;;3.30;2.58;;;12.30;99.90;;;;;;4991244;28;20208;-73
2022/10/28 03:33:17;;;;;;;4.53;2.15;;;12.10;99.90;;;;;;4993087;28;20224;-73
2022/10/28 03:35:45;;;;;;;2.20;2.10;;;12.00;99.90;;;;;;4991650;28;20678;-73
2022/10/28 03:38:14;;;;;;;2.25;2.05;;;11.90;99.90;;;;;;4973899;28;20221;-73
2022/10/28 03:40:41;;;;;;;3.03;2.25;;;11.80;99.90;;;;;;4988377;28;20205;-73
2022/10/28 03:43:09;;;;;;;2.47;2.28;;;11.70;99.90;;;;;;4990599;28;20228;-73
2022/10/28 03:45:36;;;;;;;2.75;2.35;;;11.60;99.90;;;;;;4986808;28;20592;-73
2022/10/28 03:48:04;;;;;;;3.30;2.25;;;11.60;99.90;;;;;;4989474;28;20725;-73
2022/10/28 03:50:32;;;;;;;4.28;2.33;;;11.60;99.90;;;;;;4971341;28;20259;-73
2022/10/28 03:52:59;;;;;;;3.63;2.42;;;11.60;99.90;;;;;;4990636;28;20236;-73
2022/10/28 03:55:28;;;;;;;2.63;2.42;;;11.50;99.90;;;;;;4991328;28;20197;-73
2022/10/28 03:57:55;;;;;;;2.08;1.95;;;11.50;99.90;;;;;;4988636;28;20220;-73
2022/10/28 04:00:23;;;;;;;2.28;2.08;;;11.50;99.90;;;;;;4988845;28;20204;-72
2022/10/28 04:02:52;;;;;;;2.17;1.90;;;11.50;99.90;;;;;;4988912;28;20228;-72
2022/10/28 04:05:19;;;;;;;2.58;2.30;;;11.50;99.90;;;;;;4989471;28;20199;-72
2022/10/28 04:07:47;;;;;;;2.42;2.15;;;11.40;99.90;;;;;;4989587;28;20221;-72
2022/10/28 04:10:14;;;;;;;2.05;1.80;;;11.50;99.90;;;;;;4990171;28;20201;-72
2022/10/28 04:12:44;;;;;;;1.98;1.85;;;11.50;99.90;;;;;;4979222;28;20220;-72
2022/10/28 04:15:11;;;;;;;3.85;2.28;;;11.50;99.90;;;;;;4961501;28;20205;-72
2022/10/28 04:17:39;;;;;;;2.13;2.03;;;11.60;99.90;;;;;;4988364;28;20224;-72
2022/10/28 04:20:08;;;;;;;2.90;2.03;;;11.60;99.90;;;;;;4992225;28;20662;-72
2022/10/28 04:22:36;;;;;;;2.67;2.00;;;11.60;99.90;;;;;;4988975;28;20224;-73
2022/10/28 04:25:03;;;;;;;5.57;2.22;;;11.60;99.90;;;;;;4958517;28;20228;-73
2022/10/28 04:27:31;;;;;;;2.13;2.00;;;11.60;99.90;;;;;;4989945;28;20220;-73
2022/10/28 04:29:59;;;;;;;1.98;1.88;;;11.50;99.90;;;;;;4989739;28;20621;-72
2022/10/28 04:32:27;;;;;;;2.55;2.33;;;11.50;99.90;;;;;;4993979;28;20225;-73
2022/10/28 04:34:54;;;;;;;2.08;1.98;;;11.50;99.90;;;;;;4994170;28;20752;-73
2022/10/28 04:37:22;;;;;;;2.63;2.30;;;11.50;99.90;;;;;;4977647;28;20591;-73
2022/10/28 04:39:49;;;;;;;2.03;1.92;;;11.60;99.90;;;;;;4992553;28;20205;-73
2022/10/28 04:42:17;;;;;;;2.75;2.17;;;11.50;99.90;;;;;;4990176;28;20221;-73
2022/10/28 04:44:44;;;;;;;2.53;2.30;;;11.50;99.90;;;;;;5008482;28;20279;-73
2022/10/28 04:47:13;;;;;;;2.55;2.20;;;11.60;99.90;;;;;;4992641;28;20220;-73
2022/10/28 04:49:40;;;;;;;2.17;2.03;;;11.60;99.90;;;;;;4995503;28;20194;-73
2022/10/28 04:52:08;;;;;;;2.30;2.10;;;11.60;99.90;;;;;;4991018;28;20229;-73
2022/10/28 04:54:35;;;;;;;2.78;2.03;;;11.60;99.90;;;;;;4999306;28;20200;-72
2022/10/28 04:57:03;;;;;;;2.28;2.08;;;11.60;99.90;;;;;;5006507;28;20217;-73
2022/10/28 04:59:30;;;;;;;1.92;1.83;;;11.60;99.90;;;;;;4997713;28;20781;-73
2022/10/28 05:01:58;;;;;;;2.35;2.15;;;11.60;99.90;;;;;;4993213;28;20201;-73
2022/10/28 05:04:27;;;;;;;2.53;2.33;;;11.60;99.90;;;;;;4976905;28;20209;-72
2022/10/28 05:06:54;;;;;;;2.10;1.90;;;11.50;99.90;;;;;;4969679;28;20204;-73
2022/10/28 05:09:21;;;;;;;2.20;2.00;;;11.50;99.90;;;;;;4991186;28;20674;-72
2022/10/28 05:11:49;;;;;;;2.85;2.20;;;11.50;99.90;;;;;;4992290;28;20212;-73
2022/10/28 05:14:16;;;;;;;2.22;2.03;;;11.50;99.90;;;;;;4982624;28;20193;-73
2022/10/28 05:16:43;;;;;;;2.28;2.15;;;11.50;99.90;;;;;;4991506;28;20200;-73
2022/10/28 05:19:11;;;;;;;1.88;1.77;;;11.50;99.90;;;;;;4992179;28;20225;-73
2022/10/28 05:21:40;;;;;;;2.22;1.98;;;11.50;99.90;;;;;;4993230;28;20228;-73
2022/10/28 05:24:07;;;;;;;2.03;1.92;;;11.50;99.90;;;;;;4986576;28;20229;-73
2022/10/28 05:26:35;;;;;;;2.13;1.75;;;11.40;99.90;;;;;;4992022;28;20205;-73
2022/10/28 05:29:02;;;;;;;2.35;2.15;;;11.40;99.90;;;;;;4991477;28;20229;-74
2022/10/28 05:31:31;;;;;;;2.00;1.90;;;11.30;99.90;;;;;;4996898;28;20197;-74
2022/10/28 05:33:58;;;;;;;2.17;1.90;;;11.30;99.90;;;;;;4990518;28;20608;-74
2022/10/28 05:36:26;;;;;;;2.30;2.10;;;11.30;99.90;;;;;;4991778;28;20251;-74
2022/10/28 05:38:55;;;;;;;2.00;1.90;;;11.30;99.90;;;;;;4991041;28;20221;-74
2022/10/28 05:41:22;;;;;;;2.60;2.05;;;11.30;99.90;;;;;;4991244;28;20579;-74
2022/10/28 05:43:51;;;;;;;1.95;1.85;;;11.30;99.90;;;;;;4978815;28;20231;-74
2022/10/28 05:46:18;;;;;;;3.17;2.30;;;11.30;99.90;;;;;;4975970;28;20193;-74
2022/10/28 05:48:45;;;;;;;3.33;2.03;;;11.30;99.90;;;;;;4995195;28;20701;-74
2022/10/28 05:51:13;;;;;;;2.08;1.98;;;11.40;99.90;;;;;;4990092;28;20666;-74
2022/10/28 05:53:43;;;;;;;2.17;1.95;;;11.30;99.90;;;;;;4992558;28;20217;-74
2022/10/28 05:56:12;;;;;;;2.10;1.90;;;11.30;99.90;;;;;;5009656;28;20207;-74
2022/10/28 05:58:39;;;;;;;2.47;1.95;;;11.30;99.90;;;;;;4986776;28;20221;-74
2022/10/28 06:01:08;;;;;;;1.90;1.80;;;11.30;99.90;;;;;;4991152;28;20208;-74
2022/10/28 06:03:35;;;;;;;2.28;1.98;;;11.30;99.90;;;;;;4991974;28;20229;-74
2022/10/28 06:06:03;;;;;;;2.58;2.30;;;11.30;99.90;;;;;;4979157;28;20204;-74
2022/10/28 06:08:30;;;;;;;3.45;2.22;;;11.30;99.90;;;;;;4972932;28;20224;-74
2022/10/28 06:10:58;;;;;;;2.10;1.98;;;11.40;99.90;;;;;;4993830;28;20254;-74
2022/10/28 06:13:27;;;;;;;2.05;1.95;;;11.30;99.90;;;;;;4992078;28;20597;-74
2022/10/28 06:15:56;;;;;;;2.70;2.33;;;11.40;99.90;;;;;;4990425;28;20193;-74
2022/10/28 06:18:24;;;;;;;3.25;2.22;;;11.40;99.90;;;;;;4991956;28;20644;-74
2022/10/28 06:20:53;;;;;;;2.00;1.90;;;11.40;99.90;;;;;;4977850;28;20302;-74
2022/10/28 06:23:21;;;;;;;2.33;2.13;;;11.50;99.90;;;;;;4993203;28;20272;-75
2022/10/28 06:25:48;;;;;;;2.65;2.45;;;11.50;99.90;;;;;;4978156;28;20212;-74
2022/10/28 06:28:16;;;;;;;2.20;2.10;;;11.60;99.90;;;;;;4991970;28;20221;-75
2022/10/28 06:30:45;;;;;;;2.53;2.30;;;11.60;99.90;;;;;;4992960;28;20195;-74
2022/10/28 06:33:12;;;;;;;1.90;1.80;;;11.60;99.90;;;;;;4992656;28;20647;-74
2022/10/28 06:35:39;;;;;;;2.97;2.10;;;11.70;99.90;;;;;;4989043;28;20197;-74
2022/10/28 06:38:06;;;;;;;2.20;2.00;;;11.70;99.90;;;;;;4991758;28;20271;-74
2022/10/28 06:40:34;;;;;;;2.53;2.33;;;11.70;99.90;;;;;;4990385;28;20228;-74
2022/10/28 06:43:03;;;;;;;2.53;2.17;;;11.70;99.90;;;;;;4991439;28;20236;-74
2022/10/28 06:45:32;;;;;;;2.45;2.15;;;11.70;99.90;;;;;;4989944;28;20208;-75
2022/10/28 06:48:02;;;;;;;2.47;2.22;;;11.80;99.90;;;;;;4988400;28;20227;-73
2022/10/28 06:50:30;;;;;;;2.33;2.13;;;11.80;99.90;;;;;;4990913;28;20205;-74
2022/10/28 06:52:58;;;;;;;2.28;2.13;;;11.80;99.90;;;;;;4988952;28;20235;-73
2022/10/28 06:55:27;;;;;;;2.50;2.28;;;11.90;99.90;;;;;;4991779;28;20265;-73
2022/10/28 06:57:54;;;;;;;2.10;2.00;;;12.00;99.90;;;;;;4976691;28;20224;-73
2022/10/28 07:00:21;;;;;;;2.10;2.00;;;12.00;99.90;;;;;;4989307;28;20217;-73
2022/10/28 07:02:51;;;;;;;3.38;2.55;;;12.10;99.90;;;;;;4991031;28;20221;-74
2022/10/28 07:05:21;;;;;;;2.78;2.55;;;12.70;99.90;;;;;;4988891;28;20201;-75
2022/10/28 07:07:48;;;;;;;2.75;2.55;;;13.60;99.90;;;;;;5007249;28;20232;-74
2022/10/28 07:10:16;;;;;;;3.28;2.65;;;14.30;99.90;;;;;;4987920;28;20212;-73
2022/10/28 07:12:43;;;;;;;3.95;2.47;;;15.00;99.90;;;;;;4984011;28;20290;-74
2022/10/28 07:15:11;;;;;;;3.85;2.70;;;15.60;99.90;;;;;;4985460;28;20725;-74
2022/10/28 07:17:38;;;;;;;3.17;2.47;;;16.20;99.90;;;;;;4986537;28;20225;-75
2022/10/28 07:20:07;;;;;;;2.35;2.15;;;16.60;99.90;;;;;;4985572;28;20224;-74
2022/10/28 07:22:36;;;;;;;3.53;2.50;;;17.00;99.90;;;;;;4984211;28;20283;-74
2022/10/28 07:25:04;;;;;;;3.00;2.50;;;17.30;99.90;;;;;;4986295;28;20201;-75
2022/10/28 07:27:31;;;;;;;2.60;2.35;;;17.50;99.90;;;;;;4968081;28;20509;-75
2022/10/28 07:29:59;;;;;;;4.57;2.65;;;17.60;99.90;;;;;;4970578;28;20228;-75
2022/10/28 07:32:26;;;;;;;3.05;2.65;;;17.50;99.90;;;;;;4985503;28;20227;-75
2022/10/28 07:34:53;;;;;;;2.88;2.40;;;17.40;99.90;;;;;;4986635;28;20216;-75
2022/10/28 07:37:21;;;;;;;3.42;2.50;;;17.40;99.90;;;;;;4983843;28;20438;-74
2022/10/28 07:39:49;;;;;;;7.25;2.55;;;17.60;99.90;;;;;;4967961;28;20221;-74
2022/10/28 07:42:17;;;;;;;3.03;2.72;;;17.80;99.90;;;;;;4984993;28;20248;-73
2022/10/28 07:44:44;;;;;;;3.25;2.72;;;18.00;99.90;;;;;;4984965;28;20288;-73
2022/10/28 07:47:12;;;;;;;2.65;2.30;;;18.20;99.90;;;;;;4979635;28;20279;-73
2022/10/28 07:49:39;;;;;;;3.13;2.40;;;18.30;99.90;;;;;;4982030;28;20208;-73
2022/10/28 07:52:07;;;;;;;3.47;2.50;;;18.50;99.90;;;;;;4970873;28;20295;-73
2022/10/28 07:54:34;;;;;;;5.20;2.40;;;18.60;99.90;;;;;;4982501;28;20208;-73
2022/10/28 07:57:03;;;;;;;3.75;2.58;;;18.50;99.90;;;;;;4983511;28;20224;-73
2022/10/28 07:59:30;;;;;;;2.92;2.63;;;18.60;99.90;;;;;;4985160;28;20228;-73
2022/10/28 08:02:00;;;;;;;3.10;2.05;;;18.80;99.90;;;;;;4956001;28;20207;-74
2022/10/28 08:04:30;;;;;;;5.10;2.60;;;18.90;99.90;;;;;;4986912;28;20205;-73
2022/10/28 08:06:57;;;;;;;3.45;2.75;;;19.10;99.90;;;;;;4984524;28;20203;-73
2022/10/28 08:09:25;;;;;;;2.60;2.40;;;19.40;99.90;;;;;;4980187;28;20200;-74
2022/10/28 08:11:56;;;;;;;2.90;2.65;;;19.80;99.90;;;;;;4985485;28;20205;-73
2022/10/28 08:14:25;;;;;;;3.03;2.55;;;20.20;99.90;;;;;;4984357;28;20275;-74
2022/10/28 08:16:52;;;;;;;8.27;3.38;;;20.40;99.90;;;;;;4982068;28;20926;-76
2022/10/28 08:19:20;;;;;;;2.55;2.35;;;20.40;99.90;;;;;;4987751;28;20213;-75
2022/10/28 08:21:48;;;;;;;2.95;2.20;;;20.10;99.90;;;;;;4967683;28;20197;-75
2022/10/28 08:24:15;;;;;;;3.22;2.42;;;19.90;99.90;;;;;;4984851;28;20259;-74
2022/10/28 08:26:42;;;;;;;5.63;2.88;;;19.90;99.90;;;;;;4986534;28;20200;-75
2022/10/28 08:29:11;;;;;;;3.03;2.60;;;20.00;99.90;;;;;;4977403;28;20204;-75
2022/10/28 08:31:39;;;;;;;3.78;2.60;;;20.10;99.90;;;;;;4978160;28;20266;-74
2022/10/28 08:34:08;;;;;;;2.90;2.58;;;20.50;99.90;;;;;;4982927;28;21565;-76
2022/10/28 08:36:35;;;;;;;3.20;2.50;;;20.80;99.90;;;;;;4987670;28;20222;-76
2022/10/28 08:39:03;;;;;;;4.35;2.80;;;21.20;99.90;;;;;;4993849;28;20632;-76
2022/10/28 08:41:36;;;;;;;5.03;3.00;;;21.30;99.90;;;;;;4953566;28;20202;-74
2022/10/28 08:44:34;;;;;;;6.47;2.97;;;20.80;99.90;;;;;;4984242;28;20235;-76
2022/10/28 08:47:16;;;;;;;4.75;2.67;;;20.80;99.90;;;;;;4982822;28;20260;-74
2022/10/28 08:49:46;;;;;;;3.53;2.63;;;20.90;99.90;;;;;;4986861;28;20201;-75
2022/10/28 08:52:25;;;;;;;8.02;2.97;;;21.00;99.90;;;;;;4984671;28;20224;-74
2022/10/28 08:54:56;;;;;;;3.05;2.60;;;21.10;99.90;;;;;;4985927;28;20205;-74
2022/10/28 08:57:32;;;;;;;3.38;2.70;;;20.90;99.90;;;;;;4988047;28;20224;-74
2022/10/28 09:00:02;;;;;;;3.70;3.00;;;21.20;99.90;;;;;;4986946;28;20223;-74
2022/10/28 09:02:41;;;;;;;4.38;2.75;;;21.10;99.90;;;;;;4983394;28;20224;-75
2022/10/28 09:05:19;;;;;;;4.50;2.80;;;21.20;99.90;;;;;;4988534;28;20193;-72
2022/10/28 09:07:47;;;;;;;3.13;2.75;;;21.30;99.90;;;;;;4987395;28;20299;-74
2022/10/28 09:10:16;;;;;;;6.28;2.70;;;21.50;99.90;;;;;;4982334;28;20193;-72
2022/10/28 09:12:50;;;;;;;3.83;2.75;;;21.50;99.90;;;;;;4956629;28;20231;-73
2022/10/28 09:15:35;;;;;;;3.17;2.80;;;21.20;99.90;;;;;;4985474;28;20894;-73
2022/10/28 09:18:13;;;;;;;2.75;2.40;;;20.70;99.90;;;;;;4981722;28;20618;-73
2022/10/28 09:20:51;;;;;;;3.92;2.35;;;20.50;99.90;;;;;;4987335;28;20267;-74
2022/10/28 09:23:23;;;;;;;4.38;2.60;;;20.60;99.90;;;;;;4986532;28;20247;-74
2022/10/28 09:26:10;;;;;;;2.65;2.40;;;20.80;99.90;;;;;;4987818;28;20204;-74
2022/10/28 09:28:53;;;;;;;2.67;2.28;;;21.00;99.90;;;;;;4988725;28;20954;-75
2022/10/28 09:31:28;;;;;;;4.30;2.40;;;21.10;99.90;;;;;;4973743;28;20484;-73
2022/10/28 09:34:19;;;;;;;2.72;2.38;;;21.10;99.90;;;;;;4995718;28;20227;-74
2022/10/28 09:36:52;;;;;;;4.55;2.45;;;21.20;99.90;;;;;;4967519;28;20200;-73
2022/10/28 09:39:24;;;;;;;4.40;2.58;;;21.40;99.90;;;;;;4985488;28;20710;-74
2022/10/28 09:41:53;;;;;;;3.80;2.33;;;21.50;99.90;;;;;;4975183;28;20209;-72
2022/10/28 09:44:27;;;;;;;3.03;2.28;;;21.40;99.90;;;;;;4969544;28;20245;-72
2022/10/28 09:46:58;;;;;;;4.80;2.30;;;21.30;99.90;;;;;;4988330;28;20204;-73
2022/10/28 09:49:32;;;;;;;2.75;2.20;;;21.20;99.90;;;;;;4968261;28;20204;-73
2022/10/28 09:52:05;;;;;;;5.95;2.45;;;21.30;99.90;;;;;;4984455;28;20207;-73
2022/10/28 09:54:36;;;;;;;4.82;2.60;;;21.40;99.90;;;;;;4967309;28;20201;-73
2022/10/28 09:57:05;;;;;;;5.32;2.60;;;21.60;99.90;;;;;;4984420;28;20950;-72
2022/10/28 09:59:33;;;;;;;3.58;2.53;;;21.50;99.90;;;;;;4985433;28;20221;-71
2022/10/28 10:02:01;;;;;;;3.70;2.40;;;21.30;99.90;;;;;;4967598;28;20229;-72
2022/10/28 10:04:31;;;;;;;4.00;2.20;;;21.00;99.90;;;;;;4987995;28;20709;-72
2022/10/28 10:07:04;;;;;;;4.25;2.15;;;20.40;99.90;;;;;;5004996;28;20733;-72
2022/10/28 10:09:33;;;;;;;3.83;2.33;;;20.00;99.90;;;;;;4985614;28;20197;-71
2022/10/28 10:12:05;;;;;;;9.57;2.33;;;19.80;99.90;;;;;;4984433;28;20232;-72
2022/10/28 10:14:43;;;;;;;2.88;2.45;;;19.90;99.90;;;;;;4985059;28;20566;-72
2022/10/28 10:17:16;;;;;;;3.75;2.25;;;20.00;99.90;;;;;;4984050;28;20228;-72
2022/10/28 10:20:01;;;;;;;5.63;2.63;;;20.40;99.90;;;;;;4984919;28;20260;-72
2022/10/28 10:22:34;;;;;;;3.60;2.40;;;20.60;99.90;;;;;;4989092;28;20227;-70
2022/10/28 10:25:02;;;;;;;2.88;2.20;;;20.40;99.90;;;;;;4972538;28;20712;-72
2022/10/28 10:27:30;;;;;;;4.93;2.40;;;20.20;99.90;;;;;;4986302;28;20240;-72
2022/10/28 10:29:59;;;;;;;3.42;2.30;;;20.20;99.90;;;;;;4988326;28;20197;-72
2022/10/28 10:32:30;;;;;;;5.50;2.60;;;20.30;99.90;;;;;;4986504;28;20221;-72
2022/10/28 10:35:02;;;;;;;4.22;2.72;;;20.50;99.90;;;;;;4985691;28;20211;-72
2022/10/28 10:37:33;;;;;;;3.80;2.50;;;20.80;99.90;;;;;;4986128;28;20301;-72
2022/10/28 10:40:14;;;;;;;6.22;2.47;;;21.00;99.90;;;;;;4987655;28;20737;-72
2022/10/28 10:42:41;;;;;;;7.65;4.90;;;21.40;99.90;;;;;;4982257;28;20231;-72
2022/10/28 10:45:24;;;;;;;6.10;3.40;;;21.60;99.90;;;;;;4983787;28;20875;-72
2022/10/28 10:48:07;;;;;;;7.25;2.50;;;21.80;99.90;;;;;;4984131;28;20701;-72
2022/10/28 10:50:38;;;;;;;4.50;2.60;;;22.00;99.90;;;;;;4987778;28;20193;-71
2022/10/28 10:53:06;;;;;;;4.47;2.50;;;22.10;99.90;;;;;;4981790;28;20291;-71
2022/10/28 10:55:36;;;;;;;4.43;2.20;;;22.10;99.90;;;;;;4988521;28;20784;-72
2022/10/28 10:58:05;;;;;;;4.60;2.42;;;22.30;99.90;;;;;;4983062;28;20225;-71
2022/10/28 11:00:37;;;;;;;2.92;2.38;;;22.30;99.90;;;;;;4997453;28;20217;-73
2022/10/28 11:03:08;;;;;;;4.72;2.22;;;22.30;99.90;;;;;;4980707;28;20709;-72
2022/10/28 11:05:36;;;;;;;5.72;2.40;;;22.10;99.90;;;;;;4984955;28;20221;-72
2022/10/28 11:08:06;;;;;;;3.75;2.20;;;22.00;99.90;;;;;;4982231;28;20293;-73
2022/10/28 11:10:35;;;;;;;4.93;2.35;;;21.80;99.90;;;;;;4983076;28;20454;-73
2022/10/28 11:13:05;;;;;;;4.00;1.95;;;21.80;99.90;;;;;;4982408;28;20283;-73
2022/10/28 11:15:33;;;;;;;3.72;2.05;;;22.00;99.90;;;;;;4963114;28;20201;-72
2022/10/28 11:18:02;;;;;;;5.20;2.55;;;22.10;99.90;;;;;;4982630;28;20217;-74
2022/10/28 11:20:42;;;;;;;4.05;2.47;;;22.10;99.90;;;;;;4984662;28;20291;-74
2022/10/28 11:23:34;;;;;;;3.45;2.25;;;22.20;99.90;;;;;;4980796;28;20311;-73
2022/10/28 11:26:05;;;;;;;4.93;2.35;;;22.30;99.90;;;;;;5000589;28;20267;-73
2022/10/28 11:28:49;;;;;;;3.08;2.22;;;22.40;99.90;;;;;;4984980;28;20233;-73
2022/10/28 11:31:55;;;;;;;4.82;2.00;;;22.50;99.90;;;;;;4971105;28;20193;-74
2022/10/28 11:34:53;;;;;;;4.97;2.03;;;22.60;99.90;;;;;;4954131;28;20225;-73
2022/10/28 11:37:31;;;;;;;3.20;1.77;;;22.60;99.90;;;;;;4959830;28;20228;-72
2022/10/28 11:40:09;;;;;;;3.83;2.08;;;22.80;99.90;;;;;;4983806;28;20728;-72
2022/10/28 11:42:46;;;;;;;2.42;2.10;;;22.70;99.90;;;;;;4982201;28;20724;-73
2022/10/28 11:45:23;;;;;;;5.60;2.10;;;22.70;99.90;;;;;;4986280;28;20192;-74
2022/10/28 11:48:04;;;;;;;2.60;2.00;;;22.60;99.90;;;;;;4967581;28;20243;-74
2022/10/28 11:50:55;;;;;;;7.57;2.10;;;22.30;99.90;;;;;;4986446;28;20201;-74
2022/10/28 11:53:45;;;;;;;3.53;2.08;;;22.00;99.90;;;;;;4984895;28;20694;-74
2022/10/28 11:56:22;;;;;;;2.00;1.80;;;21.90;99.90;;;;;;4971543;28;20196;-72
2022/10/28 11:59:00;;;;;;;3.40;2.13;;;22.00;99.90;;;;;;4979690;28;20228;-74
2022/10/28 12:01:41;;;;;;;5.43;2.30;;;22.20;99.90;;;;;;4984854;28;20212;-74
2022/10/28 12:04:31;;;;;;;4.88;2.10;;;22.10;99.90;;;;;;4983708;28;20239;-74
2022/10/28 12:07:14;;;;;;;4.70;2.17;;;22.30;99.90;;;;;;4982591;28;20193;-73
2022/10/28 12:09:59;;;;;;;3.17;1.90;;;22.60;99.90;;;;;;4982989;28;20284;-74
2022/10/28 12:12:34;;;;;;;4.40;2.28;;;22.50;99.90;;;;;;4985644;28;20229;-74
2022/10/28 12:15:14;;;;;;;3.00;2.00;;;22.30;99.90;;;;;;4951380;28;20859;-75
2022/10/28 12:17:48;;;;;;;3.80;2.42;;;22.30;99.90;;;;;;4985514;28;20231;-75
2022/10/28 12:20:23;;;;;;;3.50;2.40;;;22.20;99.90;;;;;;4984895;28;20322;-75
2022/10/28 12:22:54;;;;;;;2.95;2.03;;;22.20;99.90;;;;;;4985477;28;20307;-75
2022/10/28 12:25:26;;;;;;;3.72;2.10;;;22.10;99.90;;;;;;4974448;28;20208;-74
2022/10/28 12:27:59;;;;;;;3.80;2.15;;;22.10;99.90;;;;;;4984354;28;20639;-75
2022/10/28 12:30:29;;;;;;;4.68;2.42;;;22.00;99.90;;;;;;4986698;28;20204;-74
2022/10/28 12:33:03;;;;;;;2.42;2.15;;;21.90;99.90;;;;;;4968193;28;20605;-74
2022/10/28 12:35:34;;;;;;;3.75;2.30;;;21.70;99.90;;;;;;4985857;28;20203;-74
2022/10/28 12:38:09;;;;;;;3.92;2.17;;;21.70;99.90;;;;;;4984253;28;20221;-75
2022/10/28 12:40:45;;;;;;;5.38;2.20;;;21.70;99.90;;;;;;4986695;28;20873;-75
2022/10/28 12:43:18;;;;;;;3.50;2.55;;;21.60;99.90;;;;;;4969174;28;20224;-75
2022/10/28 12:45:49;;;;;;;2.63;1.83;;;21.60;99.90;;;;;;4986566;28;20197;-75
2022/10/28 12:48:22;;;;;;;2.85;1.90;;;21.50;99.90;;;;;;4982590;28;20228;-75
2022/10/28 12:50:53;;;;;;;3.15;2.00;;;21.50;99.90;;;;;;4970025;28;20208;-75
2022/10/28 12:53:34;;;;;;;3.30;2.55;;;21.60;99.90;;;;;;4970858;28;20233;-74
2022/10/28 12:56:08;;;;;;;3.13;2.00;;;21.70;99.90;;;;;;4985783;28;20204;-74
2022/10/28 12:58:42;;;;;;;2.13;1.67;;;21.70;99.90;;;;;;4982897;28;20232;-74
2022/10/28 13:01:13;;;;;;;4.10;2.00;;;21.60;99.90;;;;;;4988487;28;20533;-75
2022/10/28 13:03:41;;;;;;;2.40;1.80;;;21.50;99.90;;;;;;4981992;28;20220;-73
2022/10/28 13:06:44;;;;;;;3.42;1.95;;;21.50;99.90;;;;;;4988403;28;20208;-73
2022/10/28 13:09:41;;;;;;;3.25;2.08;;;21.40;99.90;;;;;;4988265;28;20885;-73
2022/10/28 13:12:46;;;;;;;7.47;2.20;;;21.30;99.90;;;;;;4987196;28;20221;-74